| State | Missouri | Latest | Poor (71 cfs) | |
| River | Pomme de Terre River | Rating | Observed | Estimated |
| Updated | 2026-05-10 7:45 (53 minutes ago) | Flood - The river is flooding. Obstacles can be treacherous or deadly. The river should be avoided at this stage for casual trips and definitely for the inexperienced. Trips should be attempted only with protective gear and equipment.Flood | (none) | 3126 |
| Discharge | 71 cfs (median: 445 cfs) | High - The river is high and potentially dangerous, especially for the young and / or inexperienced. Normal stream obstacles are sometimes difficult to navigate. Extended distances can be attempted, but canoe travel may not be advisable.High | (none) | 1814 |
| Height | 2 feet | Good - Conditions are ideal for a canoe or kayak. Boats typically will drag on fewer than one-quarter of riffles, if at all, and portages are unnecessary or rare. Normal float lengths can be attempted without a problem.Good | (none) | 379 |
| Trend | Steady (steady over 24 hours) | Low - River is low but can still be floated. Some riffles are okay but most come with significant dragging and might need a portage. Float lengths should be reduced to accommodate low flow, dragging, and portages.Low | (none) | 269 |
| USGS | USGS Site ( Duck Duck Go Maps) | Poor - River is too low to float comfortably. Most or all riffles will drag or must be portaged and some obstacles (such as slick shelf rock) cause undue problems. Avoid the river at this stage for casual paddling trips.Poor | (none) | 65 |
| Date | Start | End | Distance | Condition | Discharge | Height | Fishing | Details |
|---|
A total of 0 rows are displayed.
BLG - Bluegill
CCF - Channel Catfish
CP - Chain Pickerel
FWD - Freshwater Drum
GSF - Green Sunfish
KSB - Kentucky Spotted Bass
LMB - Largemouth Bass
LSF - Longear Sunfish
RB - Rock Bass / Goggle Eye
RSF - Redear Sunfish
RT - Rainbow Trout
SMB - Smallmouth Bass
WB - White Bass
WF - Whitefish
WL - WalleyeThe classic River Trips application is still available for use. It is updated with the new system using a data retrofit. It is no longer maintained. The original River Trips application is no longer updated (as of 1 Dec 2016) but can be checked for errors or for the condition of the data before it was converted to the new system.
| Observation | Height | Discharge | Maximum Discharge | Minimum Discharge | Mean Discharge | P05 | P10 | P20 | P25 | P50 (Median) | P75 | P80 | P90 | P95 |
|---|---|---|---|---|---|---|---|---|---|---|---|---|---|---|
| 2026-05-10 07:45 | 2.00 | 71 | 8880 (1961) | 22 (1963) | 1240 | 49 | 56 | 97 | 102 | 445 | 2060 | 2720 | 3410 | 3750 |
| 2026-05-10 06:45 | 2.00 | 71 | 8880 (1961) | 22 (1963) | 1240 | 49 | 56 | 97 | 102 | 445 | 2060 | 2720 | 3410 | 3750 |
| 2026-05-10 05:45 | 2.00 | 71 | 8880 (1961) | 22 (1963) | 1240 | 49 | 56 | 97 | 102 | 445 | 2060 | 2720 | 3410 | 3750 |
| 2026-05-10 04:45 | 2.00 | 71 | 8880 (1961) | 22 (1963) | 1240 | 49 | 56 | 97 | 102 | 445 | 2060 | 2720 | 3410 | 3750 |
| 2026-05-10 03:45 | 2.00 | 71 | 8880 (1961) | 22 (1963) | 1240 | 49 | 56 | 97 | 102 | 445 | 2060 | 2720 | 3410 | 3750 |
| 2026-05-10 02:45 | 2.00 | 71 | 8880 (1961) | 22 (1963) | 1240 | 49 | 56 | 97 | 102 | 445 | 2060 | 2720 | 3410 | 3750 |
| 2026-05-10 01:45 | 2.00 | 71 | 8880 (1961) | 22 (1963) | 1240 | 49 | 56 | 97 | 102 | 445 | 2060 | 2720 | 3410 | 3750 |
| 2026-05-10 00:45 | 2.00 | 71 | 8880 (1961) | 22 (1963) | 1240 | 49 | 56 | 97 | 102 | 445 | 2060 | 2720 | 3410 | 3750 |
| 2026-05-09 23:45 | 2.00 | 71 | 8880 (1961) | 22 (1963) | 1240 | 49 | 56 | 97 | 102 | 445 | 2060 | 2720 | 3410 | 3750 |
| 2026-05-09 22:45 | 2.00 | 71 | 9000 (1961) | 22 (1963) | 1230 | 46 | 53 | 99 | 107 | 460 | 1990 | 2840 | 3190 | 3750 |
| 2026-05-09 21:45 | 2.00 | 71 | 9000 (1961) | 22 (1963) | 1230 | 46 | 53 | 99 | 107 | 460 | 1990 | 2840 | 3190 | 3750 |
| 2026-05-09 20:45 | 2.00 | 71 | 9000 (1961) | 22 (1963) | 1230 | 46 | 53 | 99 | 107 | 460 | 1990 | 2840 | 3190 | 3750 |
| 2026-05-09 19:45 | 2.00 | 71 | 9000 (1961) | 22 (1963) | 1230 | 46 | 53 | 99 | 107 | 460 | 1990 | 2840 | 3190 | 3750 |
| 2026-05-09 18:45 | 2.00 | 71 | 9000 (1961) | 22 (1963) | 1230 | 46 | 53 | 99 | 107 | 460 | 1990 | 2840 | 3190 | 3750 |
| 2026-05-09 17:45 | 2.00 | 71 | 9000 (1961) | 22 (1963) | 1230 | 46 | 53 | 99 | 107 | 460 | 1990 | 2840 | 3190 | 3750 |
| 2026-05-09 16:45 | 2.00 | 71 | 9000 (1961) | 22 (1963) | 1230 | 46 | 53 | 99 | 107 | 460 | 1990 | 2840 | 3190 | 3750 |
| 2026-05-09 15:45 | 2.00 | 71 | 9000 (1961) | 22 (1963) | 1230 | 46 | 53 | 99 | 107 | 460 | 1990 | 2840 | 3190 | 3750 |
| 2026-05-09 14:45 | 1.99 | 70 | 9000 (1961) | 22 (1963) | 1230 | 46 | 53 | 99 | 107 | 460 | 1990 | 2840 | 3190 | 3750 |
| 2026-05-09 13:45 | 1.99 | 70 | 9000 (1961) | 22 (1963) | 1230 | 46 | 53 | 99 | 107 | 460 | 1990 | 2840 | 3190 | 3750 |
| 2026-05-09 12:45 | 1.99 | 70 | 9000 (1961) | 22 (1963) | 1230 | 46 | 53 | 99 | 107 | 460 | 1990 | 2840 | 3190 | 3750 |
| 2026-05-09 11:45 | 2.00 | 71 | 9000 (1961) | 22 (1963) | 1230 | 46 | 53 | 99 | 107 | 460 | 1990 | 2840 | 3190 | 3750 |
| 2026-05-09 10:45 | 2.00 | 71 | 9000 (1961) | 22 (1963) | 1230 | 46 | 53 | 99 | 107 | 460 | 1990 | 2840 | 3190 | 3750 |
| 2026-05-09 09:45 | 2.00 | 71 | 9000 (1961) | 22 (1963) | 1230 | 46 | 53 | 99 | 107 | 460 | 1990 | 2840 | 3190 | 3750 |
| 2026-05-09 08:45 | 2.00 | 71 | 9000 (1961) | 22 (1963) | 1230 | 46 | 53 | 99 | 107 | 460 | 1990 | 2840 | 3190 | 3750 |
| 2026-05-09 07:45 | 2.00 | 71 | 9000 (1961) | 22 (1963) | 1230 | 46 | 53 | 99 | 107 | 460 | 1990 | 2840 | 3190 | 3750 |
| 2026-05-09 06:45 | 2.00 | 71 | 9000 (1961) | 22 (1963) | 1230 | 46 | 53 | 99 | 107 | 460 | 1990 | 2840 | 3190 | 3750 |
| 2026-05-09 05:45 | 2.00 | 71 | 9000 (1961) | 22 (1963) | 1230 | 46 | 53 | 99 | 107 | 460 | 1990 | 2840 | 3190 | 3750 |
| 2026-05-09 04:45 | 2.00 | 71 | 9000 (1961) | 22 (1963) | 1230 | 46 | 53 | 99 | 107 | 460 | 1990 | 2840 | 3190 | 3750 |
| 2026-05-09 03:45 | 2.00 | 71 | 9000 (1961) | 22 (1963) | 1230 | 46 | 53 | 99 | 107 | 460 | 1990 | 2840 | 3190 | 3750 |
| 2026-05-09 02:45 | 2.00 | 71 | 9000 (1961) | 22 (1963) | 1230 | 46 | 53 | 99 | 107 | 460 | 1990 | 2840 | 3190 | 3750 |
| 2026-05-09 01:45 | 2.00 | 71 | 9000 (1961) | 22 (1963) | 1230 | 46 | 53 | 99 | 107 | 460 | 1990 | 2840 | 3190 | 3750 |
| 2026-05-09 00:45 | 2.00 | 71 | 9000 (1961) | 22 (1963) | 1230 | 46 | 53 | 99 | 107 | 460 | 1990 | 2840 | 3190 | 3750 |
| 2026-05-08 23:45 | 2.00 | 71 | 9000 (1961) | 22 (1963) | 1230 | 46 | 53 | 99 | 107 | 460 | 1990 | 2840 | 3190 | 3750 |
| 2026-05-08 22:45 | 2.01 | 72 | 8430 (1961) | 22 (1963) | 1240 | 46 | 52 | 103 | 115 | 483 | 2060 | 2710 | 3040 | 3760 |
| 2026-05-08 21:45 | 2.02 | 73 | 8430 (1961) | 22 (1963) | 1240 | 46 | 52 | 103 | 115 | 483 | 2060 | 2710 | 3040 | 3760 |
| 2026-05-08 20:45 | 2.04 | 75 | 8430 (1961) | 22 (1963) | 1240 | 46 | 52 | 103 | 115 | 483 | 2060 | 2710 | 3040 | 3760 |
| 2026-05-08 19:45 | 2.06 | 77 | 8430 (1961) | 22 (1963) | 1240 | 46 | 52 | 103 | 115 | 483 | 2060 | 2710 | 3040 | 3760 |
| 2026-05-08 18:45 | 2.11 | 83 | 8430 (1961) | 22 (1963) | 1240 | 46 | 52 | 103 | 115 | 483 | 2060 | 2710 | 3040 | 3760 |
| 2026-05-08 17:45 | 2.23 | 97 | 8430 (1961) | 22 (1963) | 1240 | 46 | 52 | 103 | 115 | 483 | 2060 | 2710 | 3040 | 3760 |
| 2026-05-08 16:45 | 2.48 | 132 | 8430 (1961) | 22 (1963) | 1240 | 46 | 52 | 103 | 115 | 483 | 2060 | 2710 | 3040 | 3760 |
| 2026-05-08 15:45 | 3.02 | 227 | 8430 (1961) | 22 (1963) | 1240 | 46 | 52 | 103 | 115 | 483 | 2060 | 2710 | 3040 | 3760 |
| 2026-05-08 14:45 | 3.98 | 469 | 8430 (1961) | 22 (1963) | 1240 | 46 | 52 | 103 | 115 | 483 | 2060 | 2710 | 3040 | 3760 |
| 2026-05-08 13:45 | 3.99 | 472 | 8430 (1961) | 22 (1963) | 1240 | 46 | 52 | 103 | 115 | 483 | 2060 | 2710 | 3040 | 3760 |
| 2026-05-08 12:45 | 3.99 | 472 | 8430 (1961) | 22 (1963) | 1240 | 46 | 52 | 103 | 115 | 483 | 2060 | 2710 | 3040 | 3760 |
| 2026-05-08 11:45 | 4.02 | 481 | 8430 (1961) | 22 (1963) | 1240 | 46 | 52 | 103 | 115 | 483 | 2060 | 2710 | 3040 | 3760 |
| 2026-05-08 10:45 | 4.14 | 520 | 8430 (1961) | 22 (1963) | 1240 | 46 | 52 | 103 | 115 | 483 | 2060 | 2710 | 3040 | 3760 |
| 2026-05-08 09:45 | 4.59 | 680 | 8430 (1961) | 22 (1963) | 1240 | 46 | 52 | 103 | 115 | 483 | 2060 | 2710 | 3040 | 3760 |
| 2026-05-08 08:45 | 5.37 | 1020 | 8430 (1961) | 22 (1963) | 1240 | 46 | 52 | 103 | 115 | 483 | 2060 | 2710 | 3040 | 3760 |
| 2026-05-08 07:45 | 5.38 | 1020 | 8430 (1961) | 22 (1963) | 1240 | 46 | 52 | 103 | 115 | 483 | 2060 | 2710 | 3040 | 3760 |
| 2026-05-08 06:45 | 5.37 | 1020 | 8430 (1961) | 22 (1963) | 1240 | 46 | 52 | 103 | 115 | 483 | 2060 | 2710 | 3040 | 3760 |
| 2026-05-08 05:45 | 5.37 | 1020 | 8430 (1961) | 22 (1963) | 1240 | 46 | 52 | 103 | 115 | 483 | 2060 | 2710 | 3040 | 3760 |
| 2026-05-08 04:45 | 5.37 | 1020 | 8430 (1961) | 22 (1963) | 1240 | 46 | 52 | 103 | 115 | 483 | 2060 | 2710 | 3040 | 3760 |
| 2026-05-08 03:45 | 5.37 | 1020 | 8430 (1961) | 22 (1963) | 1240 | 46 | 52 | 103 | 115 | 483 | 2060 | 2710 | 3040 | 3760 |
| 2026-05-08 02:45 | 5.37 | 1020 | 8430 (1961) | 22 (1963) | 1240 | 46 | 52 | 103 | 115 | 483 | 2060 | 2710 | 3040 | 3760 |
| 2026-05-08 01:45 | 5.37 | 1020 | 8430 (1961) | 22 (1963) | 1240 | 46 | 52 | 103 | 115 | 483 | 2060 | 2710 | 3040 | 3760 |
| 2026-05-08 00:45 | 5.37 | 1020 | 8430 (1961) | 22 (1963) | 1240 | 46 | 52 | 103 | 115 | 483 | 2060 | 2710 | 3040 | 3760 |
| 2026-05-07 23:45 | 5.37 | 1020 | 8430 (1961) | 22 (1963) | 1240 | 46 | 52 | 103 | 115 | 483 | 2060 | 2710 | 3040 | 3760 |
| 2026-05-07 22:45 | 5.37 | 1020 | 7990 (1961) | 23 (1963) | 1230 | 47 | 53 | 101 | 115 | 517 | 2000 | 2710 | 3170 | 3780 |
| 2026-05-07 21:45 | 5.37 | 1020 | 7990 (1961) | 23 (1963) | 1230 | 47 | 53 | 101 | 115 | 517 | 2000 | 2710 | 3170 | 3780 |
| 2026-05-07 20:45 | 5.37 | 1020 | 7990 (1961) | 23 (1963) | 1230 | 47 | 53 | 101 | 115 | 517 | 2000 | 2710 | 3170 | 3780 |
| 2026-05-07 19:45 | 5.37 | 1020 | 7990 (1961) | 23 (1963) | 1230 | 47 | 53 | 101 | 115 | 517 | 2000 | 2710 | 3170 | 3780 |
| 2026-05-07 18:45 | 5.38 | 1020 | 7990 (1961) | 23 (1963) | 1230 | 47 | 53 | 101 | 115 | 517 | 2000 | 2710 | 3170 | 3780 |
| 2026-05-07 17:45 | 5.39 | 1030 | 7990 (1961) | 23 (1963) | 1230 | 47 | 53 | 101 | 115 | 517 | 2000 | 2710 | 3170 | 3780 |
| 2026-05-07 16:45 | 5.43 | 1050 | 7990 (1961) | 23 (1963) | 1230 | 47 | 53 | 101 | 115 | 517 | 2000 | 2710 | 3170 | 3780 |
| 2026-05-07 15:45 | 5.69 | 1180 | 7990 (1961) | 23 (1963) | 1230 | 47 | 53 | 101 | 115 | 517 | 2000 | 2710 | 3170 | 3780 |
| 2026-05-07 14:45 | 6.26 | 1500 | 7990 (1961) | 23 (1963) | 1230 | 47 | 53 | 101 | 115 | 517 | 2000 | 2710 | 3170 | 3780 |
| 2026-05-07 13:45 | 6.26 | 1500 | 7990 (1961) | 23 (1963) | 1230 | 47 | 53 | 101 | 115 | 517 | 2000 | 2710 | 3170 | 3780 |
| 2026-05-07 12:45 | 6.26 | 1500 | 7990 (1961) | 23 (1963) | 1230 | 47 | 53 | 101 | 115 | 517 | 2000 | 2710 | 3170 | 3780 |
| 2026-05-07 11:45 | 6.27 | 1500 | 7990 (1961) | 23 (1963) | 1230 | 47 | 53 | 101 | 115 | 517 | 2000 | 2710 | 3170 | 3780 |
| 2026-05-07 10:45 | 6.26 | 1500 | 7990 (1961) | 23 (1963) | 1230 | 47 | 53 | 101 | 115 | 517 | 2000 | 2710 | 3170 | 3780 |
| 2026-05-07 09:45 | 6.27 | 1500 | 7990 (1961) | 23 (1963) | 1230 | 47 | 53 | 101 | 115 | 517 | 2000 | 2710 | 3170 | 3780 |
| 2026-05-07 08:45 | 6.27 | 1500 | 7990 (1961) | 23 (1963) | 1230 | 47 | 53 | 101 | 115 | 517 | 2000 | 2710 | 3170 | 3780 |
| 2026-05-07 07:45 | 6.27 | 1500 | 7990 (1961) | 23 (1963) | 1230 | 47 | 53 | 101 | 115 | 517 | 2000 | 2710 | 3170 | 3780 |
| 2026-05-07 06:45 | 6.27 | 1500 | 7990 (1961) | 23 (1963) | 1230 | 47 | 53 | 101 | 115 | 517 | 2000 | 2710 | 3170 | 3780 |
| 2026-05-07 05:45 | 6.27 | 1500 | 7990 (1961) | 23 (1963) | 1230 | 47 | 53 | 101 | 115 | 517 | 2000 | 2710 | 3170 | 3780 |
| 2026-05-07 04:45 | 6.27 | 1500 | 7990 (1961) | 23 (1963) | 1230 | 47 | 53 | 101 | 115 | 517 | 2000 | 2710 | 3170 | 3780 |
| 2026-05-07 03:45 | 6.27 | 1500 | 7990 (1961) | 23 (1963) | 1230 | 47 | 53 | 101 | 115 | 517 | 2000 | 2710 | 3170 | 3780 |
| 2026-05-07 02:45 | 6.27 | 1500 | 7990 (1961) | 23 (1963) | 1230 | 47 | 53 | 101 | 115 | 517 | 2000 | 2710 | 3170 | 3780 |
| 2026-05-07 01:45 | 6.26 | 1500 | 7990 (1961) | 23 (1963) | 1230 | 47 | 53 | 101 | 115 | 517 | 2000 | 2710 | 3170 | 3780 |
| 2026-05-07 00:45 | 6.26 | 1500 | 7990 (1961) | 23 (1963) | 1230 | 47 | 53 | 101 | 115 | 517 | 2000 | 2710 | 3170 | 3780 |
| 2026-05-06 23:45 | 6.26 | 1500 | 7990 (1961) | 23 (1963) | 1230 | 47 | 53 | 101 | 115 | 517 | 2000 | 2710 | 3170 | 3780 |
| 2026-05-06 22:45 | 6.26 | 1500 | 7440 (1961) | 23 (1963) | 1280 | 47 | 53 | 105 | 120 | 590 | 2100 | 2390 | 3410 | 4580 |
| 2026-05-06 21:45 | 6.26 | 1500 | 7440 (1961) | 23 (1963) | 1280 | 47 | 53 | 105 | 120 | 590 | 2100 | 2390 | 3410 | 4580 |
| 2026-05-06 20:45 | 6.27 | 1500 | 7440 (1961) | 23 (1963) | 1280 | 47 | 53 | 105 | 120 | 590 | 2100 | 2390 | 3410 | 4580 |
| 2026-05-06 19:45 | 6.26 | 1500 | 7440 (1961) | 23 (1963) | 1280 | 47 | 53 | 105 | 120 | 590 | 2100 | 2390 | 3410 | 4580 |
| 2026-05-06 18:45 | 6.26 | 1500 | 7440 (1961) | 23 (1963) | 1280 | 47 | 53 | 105 | 120 | 590 | 2100 | 2390 | 3410 | 4580 |
| 2026-05-06 17:45 | 6.25 | 1490 | 7440 (1961) | 23 (1963) | 1280 | 47 | 53 | 105 | 120 | 590 | 2100 | 2390 | 3410 | 4580 |
| 2026-05-06 16:45 | 6.26 | 1500 | 7440 (1961) | 23 (1963) | 1280 | 47 | 53 | 105 | 120 | 590 | 2100 | 2390 | 3410 | 4580 |
| 2026-05-06 15:45 | 6.27 | 1500 | 7440 (1961) | 23 (1963) | 1280 | 47 | 53 | 105 | 120 | 590 | 2100 | 2390 | 3410 | 4580 |
| 2026-05-06 14:45 | 6.26 | 1500 | 7440 (1961) | 23 (1963) | 1280 | 47 | 53 | 105 | 120 | 590 | 2100 | 2390 | 3410 | 4580 |
| 2026-05-06 13:45 | 6.27 | 1500 | 7440 (1961) | 23 (1963) | 1280 | 47 | 53 | 105 | 120 | 590 | 2100 | 2390 | 3410 | 4580 |
| 2026-05-06 12:45 | 6.27 | 1500 | 7440 (1961) | 23 (1963) | 1280 | 47 | 53 | 105 | 120 | 590 | 2100 | 2390 | 3410 | 4580 |
| 2026-05-06 11:45 | 6.27 | 1500 | 7440 (1961) | 23 (1963) | 1280 | 47 | 53 | 105 | 120 | 590 | 2100 | 2390 | 3410 | 4580 |
| 2026-05-06 10:45 | 6.27 | 1500 | 7440 (1961) | 23 (1963) | 1280 | 47 | 53 | 105 | 120 | 590 | 2100 | 2390 | 3410 | 4580 |
| 2026-05-06 09:45 | 6.27 | 1500 | 7440 (1961) | 23 (1963) | 1280 | 47 | 53 | 105 | 120 | 590 | 2100 | 2390 | 3410 | 4580 |
| 2026-05-06 08:45 | 6.27 | 1500 | 7440 (1961) | 23 (1963) | 1280 | 47 | 53 | 105 | 120 | 590 | 2100 | 2390 | 3410 | 4580 |
| 2026-05-06 07:45 | 6.26 | 1500 | 7440 (1961) | 23 (1963) | 1280 | 47 | 53 | 105 | 120 | 590 | 2100 | 2390 | 3410 | 4580 |
| 2026-05-06 06:45 | 6.27 | 1500 | 7440 (1961) | 23 (1963) | 1280 | 47 | 53 | 105 | 120 | 590 | 2100 | 2390 | 3410 | 4580 |
| 2026-05-06 05:45 | 6.27 | 1500 | 7440 (1961) | 23 (1963) | 1280 | 47 | 53 | 105 | 120 | 590 | 2100 | 2390 | 3410 | 4580 |
| 2026-05-06 04:45 | 6.27 | 1500 | 7440 (1961) | 23 (1963) | 1280 | 47 | 53 | 105 | 120 | 590 | 2100 | 2390 | 3410 | 4580 |
| 2026-05-06 03:45 | 6.28 | 1510 | 7440 (1961) | 23 (1963) | 1280 | 47 | 53 | 105 | 120 | 590 | 2100 | 2390 | 3410 | 4580 |
| 2026-05-06 02:45 | 6.27 | 1500 | 7440 (1961) | 23 (1963) | 1280 | 47 | 53 | 105 | 120 | 590 | 2100 | 2390 | 3410 | 4580 |
| 2026-05-06 01:45 | 6.27 | 1500 | 7440 (1961) | 23 (1963) | 1280 | 47 | 53 | 105 | 120 | 590 | 2100 | 2390 | 3410 | 4580 |
| 2026-05-06 00:45 | 6.26 | 1500 | 7440 (1961) | 23 (1963) | 1280 | 47 | 53 | 105 | 120 | 590 | 2100 | 2390 | 3410 | 4580 |
| 2026-05-05 23:45 | 6.27 | 1500 | 7440 (1961) | 23 (1963) | 1280 | 47 | 53 | 105 | 120 | 590 | 2100 | 2390 | 3410 | 4580 |
| 2026-05-05 22:45 | 6.27 | 1500 | 5110 (1961) | 27 (1963) | 1120 | 47 | 54 | 110 | 126 | 594 | 2010 | 2130 | 3170 | 3540 |
| 2026-05-05 21:45 | 6.27 | 1500 | 5110 (1961) | 27 (1963) | 1120 | 47 | 54 | 110 | 126 | 594 | 2010 | 2130 | 3170 | 3540 |
| 2026-05-05 20:45 | 6.27 | 1500 | 5110 (1961) | 27 (1963) | 1120 | 47 | 54 | 110 | 126 | 594 | 2010 | 2130 | 3170 | 3540 |
| 2026-05-05 19:45 | 6.27 | 1500 | 5110 (1961) | 27 (1963) | 1120 | 47 | 54 | 110 | 126 | 594 | 2010 | 2130 | 3170 | 3540 |
| 2026-05-05 18:45 | 6.28 | 1510 | 5110 (1961) | 27 (1963) | 1120 | 47 | 54 | 110 | 126 | 594 | 2010 | 2130 | 3170 | 3540 |
| 2026-05-05 17:45 | 6.28 | 1510 | 5110 (1961) | 27 (1963) | 1120 | 47 | 54 | 110 | 126 | 594 | 2010 | 2130 | 3170 | 3540 |
| 2026-05-05 16:45 | 6.28 | 1510 | 5110 (1961) | 27 (1963) | 1120 | 47 | 54 | 110 | 126 | 594 | 2010 | 2130 | 3170 | 3540 |
| 2026-05-05 15:45 | 6.32 | 1540 | 5110 (1961) | 27 (1963) | 1120 | 47 | 54 | 110 | 126 | 594 | 2010 | 2130 | 3170 | 3540 |
| 2026-05-05 14:45 | 6.69 | 1770 | 5110 (1961) | 27 (1963) | 1120 | 47 | 54 | 110 | 126 | 594 | 2010 | 2130 | 3170 | 3540 |
| 2026-05-05 13:45 | 6.98 | 1970 | 5110 (1961) | 27 (1963) | 1120 | 47 | 54 | 110 | 126 | 594 | 2010 | 2130 | 3170 | 3540 |
| 2026-05-05 12:45 | 6.99 | 1970 | 5110 (1961) | 27 (1963) | 1120 | 47 | 54 | 110 | 126 | 594 | 2010 | 2130 | 3170 | 3540 |
| 2026-05-05 11:45 | 6.98 | 1970 | 5110 (1961) | 27 (1963) | 1120 | 47 | 54 | 110 | 126 | 594 | 2010 | 2130 | 3170 | 3540 |
| 2026-05-05 10:45 | 7.00 | 1980 | 5110 (1961) | 27 (1963) | 1120 | 47 | 54 | 110 | 126 | 594 | 2010 | 2130 | 3170 | 3540 |
| 2026-05-05 09:45 | 7.07 | 2030 | 5110 (1961) | 27 (1963) | 1120 | 47 | 54 | 110 | 126 | 594 | 2010 | 2130 | 3170 | 3540 |
| 2026-05-05 08:45 | 7.60 | 2430 | 5110 (1961) | 27 (1963) | 1120 | 47 | 54 | 110 | 126 | 594 | 2010 | 2130 | 3170 | 3540 |
| 2026-05-05 07:45 | 7.60 | 2430 | 5110 (1961) | 27 (1963) | 1120 | 47 | 54 | 110 | 126 | 594 | 2010 | 2130 | 3170 | 3540 |
| 2026-05-05 06:45 | 7.61 | 2440 | 5110 (1961) | 27 (1963) | 1120 | 47 | 54 | 110 | 126 | 594 | 2010 | 2130 | 3170 | 3540 |
| 2026-05-05 05:45 | 7.61 | 2440 | 5110 (1961) | 27 (1963) | 1120 | 47 | 54 | 110 | 126 | 594 | 2010 | 2130 | 3170 | 3540 |
| 2026-05-05 04:45 | 7.60 | 2430 | 5110 (1961) | 27 (1963) | 1120 | 47 | 54 | 110 | 126 | 594 | 2010 | 2130 | 3170 | 3540 |
| 2026-05-05 03:45 | 7.61 | 2440 | 5110 (1961) | 27 (1963) | 1120 | 47 | 54 | 110 | 126 | 594 | 2010 | 2130 | 3170 | 3540 |
| 2026-05-05 02:45 | 7.59 | 2420 | 5110 (1961) | 27 (1963) | 1120 | 47 | 54 | 110 | 126 | 594 | 2010 | 2130 | 3170 | 3540 |
| 2026-05-05 01:45 | 7.59 | 2420 | 5110 (1961) | 27 (1963) | 1120 | 47 | 54 | 110 | 126 | 594 | 2010 | 2130 | 3170 | 3540 |
| 2026-05-05 00:45 | 7.59 | 2420 | 5110 (1961) | 27 (1963) | 1120 | 47 | 54 | 110 | 126 | 594 | 2010 | 2130 | 3170 | 3540 |
| 2026-05-04 23:45 | 7.60 | 2430 | 5110 (1961) | 27 (1963) | 1120 | 47 | 54 | 110 | 126 | 594 | 2010 | 2130 | 3170 | 3540 |
| 2026-05-04 22:45 | 7.59 | 2420 | 5210 (1961) | 44 (1975) | 1050 | 51 | 56 | 109 | 119 | 591 | 1730 | 2030 | 2930 | 3610 |
| 2026-05-04 21:45 | 7.60 | 2430 | 5210 (1961) | 44 (1975) | 1050 | 51 | 56 | 109 | 119 | 591 | 1730 | 2030 | 2930 | 3610 |
| 2026-05-04 20:45 | 7.60 | 2430 | 5210 (1961) | 44 (1975) | 1050 | 51 | 56 | 109 | 119 | 591 | 1730 | 2030 | 2930 | 3610 |
| 2026-05-04 19:45 | 7.59 | 2420 | 5210 (1961) | 44 (1975) | 1050 | 51 | 56 | 109 | 119 | 591 | 1730 | 2030 | 2930 | 3610 |
| 2026-05-04 18:45 | 7.60 | 2430 | 5210 (1961) | 44 (1975) | 1050 | 51 | 56 | 109 | 119 | 591 | 1730 | 2030 | 2930 | 3610 |
| 2026-05-04 17:45 | 7.61 | 2440 | 5210 (1961) | 44 (1975) | 1050 | 51 | 56 | 109 | 119 | 591 | 1730 | 2030 | 2930 | 3610 |
| 2026-05-04 16:45 | 7.65 | 2470 | 5210 (1961) | 44 (1975) | 1050 | 51 | 56 | 109 | 119 | 591 | 1730 | 2030 | 2930 | 3610 |
| 2026-05-04 15:45 | 7.91 | 2680 | 5210 (1961) | 44 (1975) | 1050 | 51 | 56 | 109 | 119 | 591 | 1730 | 2030 | 2930 | 3610 |
| 2026-05-04 14:45 | 8.23 | 2950 | 5210 (1961) | 44 (1975) | 1050 | 51 | 56 | 109 | 119 | 591 | 1730 | 2030 | 2930 | 3610 |
| 2026-05-04 13:45 | 8.24 | 2960 | 5210 (1961) | 44 (1975) | 1050 | 51 | 56 | 109 | 119 | 591 | 1730 | 2030 | 2930 | 3610 |
| 2026-05-04 12:45 | 8.24 | 2960 | 5210 (1961) | 44 (1975) | 1050 | 51 | 56 | 109 | 119 | 591 | 1730 | 2030 | 2930 | 3610 |
| 2026-05-04 11:45 | 8.23 | 2950 | 5210 (1961) | 44 (1975) | 1050 | 51 | 56 | 109 | 119 | 591 | 1730 | 2030 | 2930 | 3610 |
| 2026-05-04 10:45 | 8.23 | 2950 | 5210 (1961) | 44 (1975) | 1050 | 51 | 56 | 109 | 119 | 591 | 1730 | 2030 | 2930 | 3610 |
| 2026-05-04 09:45 | 8.23 | 2950 | 5210 (1961) | 44 (1975) | 1050 | 51 | 56 | 109 | 119 | 591 | 1730 | 2030 | 2930 | 3610 |
| 2026-05-04 08:45 | 8.23 | 2950 | 5210 (1961) | 44 (1975) | 1050 | 51 | 56 | 109 | 119 | 591 | 1730 | 2030 | 2930 | 3610 |
| 2026-05-04 07:45 | 8.24 | 2960 | 5210 (1961) | 44 (1975) | 1050 | 51 | 56 | 109 | 119 | 591 | 1730 | 2030 | 2930 | 3610 |
| 2026-05-04 06:45 | 8.23 | 2950 | 5210 (1961) | 44 (1975) | 1050 | 51 | 56 | 109 | 119 | 591 | 1730 | 2030 | 2930 | 3610 |
| 2026-05-04 05:45 | 8.23 | 2950 | 5210 (1961) | 44 (1975) | 1050 | 51 | 56 | 109 | 119 | 591 | 1730 | 2030 | 2930 | 3610 |
| 2026-05-04 04:45 | 8.23 | 2950 | 5210 (1961) | 44 (1975) | 1050 | 51 | 56 | 109 | 119 | 591 | 1730 | 2030 | 2930 | 3610 |
| 2026-05-04 03:45 | 8.24 | 2960 | 5210 (1961) | 44 (1975) | 1050 | 51 | 56 | 109 | 119 | 591 | 1730 | 2030 | 2930 | 3610 |
| 2026-05-04 02:45 | 8.24 | 2960 | 5210 (1961) | 44 (1975) | 1050 | 51 | 56 | 109 | 119 | 591 | 1730 | 2030 | 2930 | 3610 |
| 2026-05-04 01:45 | 8.25 | 2970 | 5210 (1961) | 44 (1975) | 1050 | 51 | 56 | 109 | 119 | 591 | 1730 | 2030 | 2930 | 3610 |
| 2026-05-04 00:45 | 8.24 | 2960 | 5210 (1961) | 44 (1975) | 1050 | 51 | 56 | 109 | 119 | 591 | 1730 | 2030 | 2930 | 3610 |
| 2026-05-03 23:45 | 8.25 | 2970 | 5210 (1961) | 44 (1975) | 1050 | 51 | 56 | 109 | 119 | 591 | 1730 | 2030 | 2930 | 3610 |
| 2026-05-03 22:45 | 8.25 | 2970 | 5910 (1961) | 29 (1963) | 1040 | 47 | 53 | 106 | 113 | 488 | 1590 | 2060 | 2950 | 3620 |
| 2026-05-03 21:45 | 8.23 | 2950 | 5910 (1961) | 29 (1963) | 1040 | 47 | 53 | 106 | 113 | 488 | 1590 | 2060 | 2950 | 3620 |
| 2026-05-03 20:45 | 8.24 | 2960 | 5910 (1961) | 29 (1963) | 1040 | 47 | 53 | 106 | 113 | 488 | 1590 | 2060 | 2950 | 3620 |
| 2026-05-03 19:45 | 8.23 | 2950 | 5910 (1961) | 29 (1963) | 1040 | 47 | 53 | 106 | 113 | 488 | 1590 | 2060 | 2950 | 3620 |
| 2026-05-03 18:45 | 8.23 | 2950 | 5910 (1961) | 29 (1963) | 1040 | 47 | 53 | 106 | 113 | 488 | 1590 | 2060 | 2950 | 3620 |
| 2026-05-03 17:45 | 8.25 | 2970 | 5910 (1961) | 29 (1963) | 1040 | 47 | 53 | 106 | 113 | 488 | 1590 | 2060 | 2950 | 3620 |
| 2026-05-03 16:45 | 8.25 | 2970 | 5910 (1961) | 29 (1963) | 1040 | 47 | 53 | 106 | 113 | 488 | 1590 | 2060 | 2950 | 3620 |
| 2026-05-03 15:45 | 8.24 | 2960 | 5910 (1961) | 29 (1963) | 1040 | 47 | 53 | 106 | 113 | 488 | 1590 | 2060 | 2950 | 3620 |
| 2026-05-03 14:45 | 8.25 | 2970 | 5910 (1961) | 29 (1963) | 1040 | 47 | 53 | 106 | 113 | 488 | 1590 | 2060 | 2950 | 3620 |
| 2026-05-03 13:45 | 8.26 | 2980 | 5910 (1961) | 29 (1963) | 1040 | 47 | 53 | 106 | 113 | 488 | 1590 | 2060 | 2950 | 3620 |
| 2026-05-03 12:45 | 8.25 | 2970 | 5910 (1961) | 29 (1963) | 1040 | 47 | 53 | 106 | 113 | 488 | 1590 | 2060 | 2950 | 3620 |
| 2026-05-03 11:45 | 8.25 | 2970 | 5910 (1961) | 29 (1963) | 1040 | 47 | 53 | 106 | 113 | 488 | 1590 | 2060 | 2950 | 3620 |
| 2026-05-03 10:45 | 8.24 | 2960 | 5910 (1961) | 29 (1963) | 1040 | 47 | 53 | 106 | 113 | 488 | 1590 | 2060 | 2950 | 3620 |
| 2026-05-03 09:45 | 8.25 | 2970 | 5910 (1961) | 29 (1963) | 1040 | 47 | 53 | 106 | 113 | 488 | 1590 | 2060 | 2950 | 3620 |
| 2026-05-03 08:45 | 8.26 | 2980 | 5910 (1961) | 29 (1963) | 1040 | 47 | 53 | 106 | 113 | 488 | 1590 | 2060 | 2950 | 3620 |
| 2026-05-03 07:45 | 8.25 | 2970 | 5910 (1961) | 29 (1963) | 1040 | 47 | 53 | 106 | 113 | 488 | 1590 | 2060 | 2950 | 3620 |
| 2026-05-03 06:45 | 8.25 | 2970 | 5910 (1961) | 29 (1963) | 1040 | 47 | 53 | 106 | 113 | 488 | 1590 | 2060 | 2950 | 3620 |
| 2026-05-03 05:45 | 8.25 | 2970 | 5910 (1961) | 29 (1963) | 1040 | 47 | 53 | 106 | 113 | 488 | 1590 | 2060 | 2950 | 3620 |
| 2026-05-03 04:45 | 8.25 | 2970 | 5910 (1961) | 29 (1963) | 1040 | 47 | 53 | 106 | 113 | 488 | 1590 | 2060 | 2950 | 3620 |
| 2026-05-03 03:45 | 8.25 | 2970 | 5910 (1961) | 29 (1963) | 1040 | 47 | 53 | 106 | 113 | 488 | 1590 | 2060 | 2950 | 3620 |
| 2026-05-03 02:45 | 8.26 | 2980 | 5910 (1961) | 29 (1963) | 1040 | 47 | 53 | 106 | 113 | 488 | 1590 | 2060 | 2950 | 3620 |
| 2026-05-03 01:45 | 8.24 | 2960 | 5910 (1961) | 29 (1963) | 1040 | 47 | 53 | 106 | 113 | 488 | 1590 | 2060 | 2950 | 3620 |
| 2026-05-03 00:45 | 8.25 | 2970 | 5910 (1961) | 29 (1963) | 1040 | 47 | 53 | 106 | 113 | 488 | 1590 | 2060 | 2950 | 3620 |
| 2026-05-02 23:45 | 8.25 | 2970 | 5910 (1961) | 29 (1963) | 1040 | 47 | 53 | 106 | 113 | 488 | 1590 | 2060 | 2950 | 3620 |
A total of 177 rows are displayed for years 1961 through 2025.